Time;durP1;ratioP1;P1;durP2;ratioP2;P2;SDS_P1;SDS_P2;PMS_P1;PMS_P2;Temp;Humidity;BMP_temperature;BMP_pressure;BME280_temperature;BME280_humidity;BME280_pressure;Samples;Min_cycle;Max_cycle;Signal;HPM_P1;HPM_P2
2022/01/13 00:01:46;;;;;;;16.70;10.43;;;;;;;;;;5056519;28;20209;-80
2022/01/13 00:04:15;;;;;;;15.53;10.63;;;;;;;;;;5053389;28;20242;-83
2022/01/13 00:06:44;;;;;;;20.00;10.77;;;;;;;;;;5055241;28;20208;-81
2022/01/13 00:09:11;;;;;;;19.43;9.53;;;;;;;;;;5054713;28;20241;-80
2022/01/13 00:11:38;;;;;;;16.97;10.03;;;;;;;;;;5054159;28;20217;-82
2022/01/13 00:14:25;;;;;;;17.20;10.83;;;;;;;;;;5053936;28;20243;-80
2022/01/13 00:19:57;;;;;;;15.10;10.90;;;;;;;;;;5076474;28;20285;-80
2022/01/13 00:22:42;;;;;;;14.60;10.97;;;;;;;;;;5076577;28;20211;-80
2022/01/13 00:25:13;;;;;;;18.10;11.23;;;;;;;;;;5076628;28;20191;-80
2022/01/13 00:27:44;;;;;;;21.60;11.87;;;;;;;;;;5085488;28;20253;-79
2022/01/13 00:30:16;;;;;;;18.83;12.43;;;;;;;;;;5080987;28;20233;-80
2022/01/13 00:32:44;;;;;;;21.37;13.27;;;;;;;;;;5084172;28;20237;-80
2022/01/13 00:35:11;;;;;;;17.87;12.83;;;;;;;;;;5082711;28;20214;-80
2022/01/13 00:37:40;;;;;;;17.83;12.00;;;;;;;;;;5060224;28;20239;-79
2022/01/13 00:40:08;;;;;;;25.97;15.13;;;;;;;;;;5064411;28;20312;-81
2022/01/13 00:42:35;;;;;;;22.37;13.93;;;;;;;;;;5066533;28;20243;-82
2022/01/13 00:45:03;;;;;;;27.23;15.10;;;;;;;;;;5067236;28;20220;-83
2022/01/13 00:47:30;;;;;;;24.50;15.33;;;;;;;;;;5065473;28;20369;-83
2022/01/13 00:49:58;;;;;;;23.23;13.93;;;;;;;;;;5069315;28;20227;-83
2022/01/13 00:52:25;;;;;;;22.17;14.67;;;;;;;;;;5065344;28;20692;-83
2022/01/13 00:54:56;;;;;;;21.50;13.67;;;;;;;;;;5066793;28;20213;-83
2022/01/13 00:57:23;;;;;;;24.63;14.20;;;;;;;;;;5084678;28;20204;-83
2022/01/13 00:59:50;;;;;;;22.63;14.33;;;;;;;;;;5094368;28;20223;-83
2022/01/13 01:02:17;;;;;;;28.47;15.37;;;;;;;;;;5104567;28;20276;-83
2022/01/13 01:04:44;;;;;;;20.77;14.90;;;;;;;;;;5104369;28;20207;-83
2022/01/13 01:07:11;;;;;;;23.50;15.40;;;;;;;;;;5066175;28;20212;-83
2022/01/13 01:09:41;;;;;;;21.30;14.20;;;;;;;;;;5064410;28;20232;-83
2022/01/13 01:12:11;;;;;;;21.50;14.70;;;;;;;;;;5062199;28;20696;-83
2022/01/13 01:14:45;;;;;;;22.70;15.40;;;;;;;;;;5062828;28;20232;-83
2022/01/13 01:17:14;;;;;;;24.90;14.53;;;;;;;;;;5062654;28;20271;-83
2022/01/13 01:19:44;;;;;;;29.77;14.83;;;;;;;;;;5063039;28;20235;-83
2022/01/13 01:25:44;;;;;;;21.97;13.50;;;;;;;;;;5037781;28;20243;-83
2022/01/13 01:28:18;;;;;;;21.33;14.07;;;;;;;;;;5039862;28;20695;-83
2022/01/13 01:30:48;;;;;;;24.93;14.23;;;;;;;;;;5055540;28;20654;-83
2022/01/13 01:33:16;;;;;;;24.57;14.67;;;;;;;;;;5062087;28;20235;-83
2022/01/13 01:35:43;;;;;;;27.33;15.27;;;;;;;;;;5073246;28;20291;-83
2022/01/13 01:38:10;;;;;;;23.37;15.27;;;;;;;;;;5078726;28;20236;-83
2022/01/13 01:40:38;;;;;;;24.73;15.80;;;;;;;;;;5078967;28;20236;-83
2022/01/13 01:43:05;;;;;;;24.57;15.17;;;;;;;;;;5078682;28;20658;-83
2022/01/13 01:45:42;;;;;;;26.67;15.30;;;;;;;;;;5077385;28;20205;-83
2022/01/13 01:48:10;;;;;;;24.03;13.87;;;;;;;;;;5077432;28;20239;-83
2022/01/13 01:50:38;;;;;;;22.83;13.87;;;;;;;;;;5076651;28;20264;-81
2022/01/13 01:53:06;;;;;;;24.87;14.43;;;;;;;;;;5075692;28;20250;-82
2022/01/13 01:55:33;;;;;;;18.50;13.70;;;;;;;;;;5076670;28;20240;-81
2022/01/13 01:58:00;;;;;;;27.23;15.10;;;;;;;;;;5075568;28;20227;-81
2022/01/13 02:00:27;;;;;;;22.17;13.57;;;;;;;;;;5069672;28;20239;-80
2022/01/13 02:02:56;;;;;;;23.53;14.93;;;;;;;;;;5067317;28;20322;-80
2022/01/13 02:05:23;;;;;;;24.07;14.37;;;;;;;;;;5070341;28;20622;-83
2022/01/13 02:07:51;;;;;;;24.53;14.47;;;;;;;;;;5088280;28;20227;-79
2022/01/13 02:10:18;;;;;;;21.73;14.70;;;;;;;;;;5094485;28;20234;-79
2022/01/13 02:12:48;;;;;;;27.60;15.73;;;;;;;;;;5095578;28;20285;-81
2022/01/13 02:15:31;;;;;;;24.07;15.00;;;;;;;;;;5095513;28;20197;-80
2022/01/13 02:18:01;;;;;;;28.33;16.33;;;;;;;;;;5082850;28;20310;-79
2022/01/13 02:20:42;;;;;;;26.10;14.43;;;;;;;;;;5073659;28;20228;-79
2022/01/13 02:23:09;;;;;;;21.23;13.57;;;;;;;;;;5073508;28;20236;-78
2022/01/13 02:25:37;;;;;;;24.63;15.17;;;;;;;;;;5073578;28;20249;-78
2022/01/13 02:28:04;;;;;;;25.43;14.83;;;;;;;;;;5073260;28;20235;-78
2022/01/13 02:30:31;;;;;;;26.03;15.27;;;;;;;;;;5074080;28;20223;-78
2022/01/13 02:32:58;;;;;;;24.93;15.90;;;;;;;;;;5073339;28;20234;-78
2022/01/13 02:35:27;;;;;;;25.27;15.57;;;;;;;;;;5073732;28;20207;-79
2022/01/13 02:37:55;;;;;;;23.20;15.73;;;;;;;;;;5073613;28;20239;-80
2022/01/13 02:40:22;;;;;;;27.67;17.00;;;;;;;;;;5075744;28;20233;-80
2022/01/13 02:42:49;;;;;;;27.70;15.97;;;;;;;;;;5074812;28;20647;-80
2022/01/13 02:45:20;;;;;;;28.27;16.17;;;;;;;;;;5065297;28;20212;-80
2022/01/13 02:48:13;;;;;;;26.27;16.23;;;;;;;;;;5054796;28;20240;-81
2022/01/13 02:50:41;;;;;;;28.77;14.80;;;;;;;;;;5054513;28;20233;-78
2022/01/13 02:53:10;;;;;;;22.00;14.60;;;;;;;;;;5052965;28;20259;-78
2022/01/13 02:55:37;;;;;;;27.10;15.30;;;;;;;;;;5053133;28;20209;-79
2022/01/13 02:58:04;;;;;;;27.33;16.07;;;;;;;;;;5053093;28;20231;-78
2022/01/13 03:00:32;;;;;;;25.47;15.83;;;;;;;;;;5062008;28;20252;-78
2022/01/13 03:02:59;;;;;;;26.60;15.33;;;;;;;;;;5072502;28;20242;-78
2022/01/13 03:05:26;;;;;;;24.80;16.00;;;;;;;;;;5072992;28;20219;-78
2022/01/13 03:07:53;;;;;;;23.03;16.10;;;;;;;;;;5072665;28;20232;-78
2022/01/13 03:10:22;;;;;;;25.47;14.83;;;;;;;;;;5073085;28;20235;-78
2022/01/13 03:12:49;;;;;;;22.37;14.87;;;;;;;;;;5072493;28;20236;-78
2022/01/13 03:15:16;;;;;;;24.40;15.60;;;;;;;;;;5072903;28;20261;-78
2022/01/13 03:17:43;;;;;;;26.17;15.60;;;;;;;;;;5072541;28;20236;-78
2022/01/13 03:20:11;;;;;;;23.03;15.27;;;;;;;;;;5072680;28;20225;-78
2022/01/13 03:22:38;;;;;;;26.37;15.73;;;;;;;;;;5072221;28;20247;-78
2022/01/13 03:25:06;;;;;;;24.10;15.43;;;;;;;;;;5063823;28;20677;-78
2022/01/13 03:27:35;;;;;;;27.17;15.33;;;;;;;;;;5052344;28;20236;-78
2022/01/13 03:30:05;;;;;;;30.67;16.47;;;;;;;;;;5053409;28;20282;-82
2022/01/13 03:32:32;;;;;;;23.77;15.17;;;;;;;;;;5054479;28;20235;-83
2022/01/13 03:34:59;;;;;;;23.63;14.40;;;;;;;;;;5054658;28;20229;-81
2022/01/13 03:37:27;;;;;;;24.67;15.23;;;;;;;;;;5054449;28;20248;-81
2022/01/13 03:39:54;;;;;;;25.77;14.53;;;;;;;;;;5068029;28;20230;-80
2022/01/13 03:42:21;;;;;;;22.20;15.13;;;;;;;;;;5072188;28;20218;-78
2022/01/13 03:44:50;;;;;;;29.97;17.63;;;;;;;;;;5072265;28;20319;-80
2022/01/13 03:47:17;;;;;;;24.37;14.63;;;;;;;;;;5072035;28;20228;-78
2022/01/13 03:49:44;;;;;;;23.80;13.97;;;;;;;;;;5072246;28;20232;-78
2022/01/13 03:52:33;;;;;;;23.50;15.00;;;;;;;;;;5071786;28;20218;-78
2022/01/13 03:55:18;;;;;;;23.00;15.03;;;;;;;;;;5072386;28;20216;-78
2022/01/13 03:58:00;;;;;;;23.13;14.30;;;;;;;;;;5071839;28;20243;-78
2022/01/13 04:00:54;;;;;;;22.90;14.23;;;;;;;;;;5051554;28;20232;-78
2022/01/13 04:03:21;;;;;;;23.23;14.00;;;;;;;;;;5051477;28;20233;-78
2022/01/13 04:06:02;;;;;;;22.67;13.90;;;;;;;;;;5051972;28;20213;-78
2022/01/13 04:08:29;;;;;;;24.50;14.47;;;;;;;;;;5053025;28;20294;-82
2022/01/13 04:11:12;;;;;;;20.27;13.97;;;;;;;;;;5054431;28;20229;-81
2022/01/13 04:13:54;;;;;;;21.13;13.83;;;;;;;;;;5052291;28;20250;-78
2022/01/13 04:16:24;;;;;;;22.87;15.20;;;;;;;;;;5052259;28;20259;-78
2022/01/13 04:18:52;;;;;;;25.30;14.77;;;;;;;;;;5051506;28;20316;-78
2022/01/13 04:21:20;;;;;;;20.60;13.43;;;;;;;;;;5063232;28;20231;-79
2022/01/13 04:23:47;;;;;;;23.60;13.77;;;;;;;;;;5071446;28;20236;-78
2022/01/13 04:26:18;;;;;;;19.80;14.00;;;;;;;;;;5072359;28;20211;-78
2022/01/13 04:28:46;;;;;;;19.93;13.50;;;;;;;;;;5071701;28;20243;-78
2022/01/13 04:31:13;;;;;;;21.30;14.37;;;;;;;;;;5072049;28;20232;-78
2022/01/13 04:33:41;;;;;;;21.00;13.53;;;;;;;;;;5071451;28;20243;-78
2022/01/13 04:36:09;;;;;;;23.40;14.03;;;;;;;;;;5072114;28;20212;-79
2022/01/13 04:38:36;;;;;;;21.27;13.60;;;;;;;;;;5071576;28;20290;-78
2022/01/13 04:41:04;;;;;;;21.63;12.97;;;;;;;;;;5065024;28;20229;-79
2022/01/13 04:43:32;;;;;;;20.73;13.87;;;;;;;;;;5051313;28;20252;-78
2022/01/13 04:45:59;;;;;;;21.50;13.80;;;;;;;;;;5051932;28;20259;-78
2022/01/13 04:48:26;;;;;;;22.10;13.77;;;;;;;;;;5051110;28;20248;-79
2022/01/13 04:50:55;;;;;;;22.53;13.97;;;;;;;;;;5051725;28;20233;-78
2022/01/13 04:53:22;;;;;;;21.80;13.43;;;;;;;;;;5050887;28;20236;-78
2022/01/13 04:55:57;;;;;;;24.07;14.10;;;;;;;;;;5051744;28;20241;-78
2022/01/13 04:58:25;;;;;;;22.93;13.47;;;;;;;;;;5051239;28;20225;-80
2022/01/13 05:00:52;;;;;;;21.00;14.37;;;;;;;;;;5056013;28;20225;-78
2022/01/13 05:03:19;;;;;;;21.73;14.07;;;;;;;;;;5071033;28;20247;-79
2022/01/13 05:05:46;;;;;;;22.00;13.60;;;;;;;;;;5071180;28;20217;-78
2022/01/13 05:08:14;;;;;;;22.53;14.30;;;;;;;;;;5071353;28;20277;-78
2022/01/13 05:10:41;;;;;;;22.23;14.10;;;;;;;;;;5071565;28;20232;-78
2022/01/13 05:13:10;;;;;;;24.67;14.00;;;;;;;;;;5072805;28;20232;-80
2022/01/13 05:15:39;;;;;;;23.57;14.07;;;;;;;;;;5075639;28;20258;-79
2022/01/13 05:18:14;;;;;;;23.63;14.53;;;;;;;;;;5075258;28;20228;-79
2022/01/13 05:20:49;;;;;;;19.83;13.57;;;;;;;;;;5075302;28;20228;-81
2022/01/13 05:23:18;;;;;;;25.27;14.13;;;;;;;;;;5073723;28;20232;-80
2022/01/13 05:25:45;;;;;;;27.20;14.53;;;;;;;;;;5078700;28;20264;-82
2022/01/13 05:28:13;;;;;;;21.67;13.50;;;;;;;;;;5076627;28;20231;-79
2022/01/13 05:30:40;;;;;;;24.47;15.27;;;;;;;;;;5074996;28;20237;-79
2022/01/13 05:33:07;;;;;;;23.17;15.17;;;;;;;;;;5074209;28;20231;-81
2022/01/13 05:35:36;;;;;;;22.10;13.63;;;;;;;;;;5071453;28;20208;-79
2022/01/13 05:38:03;;;;;;;28.17;15.80;;;;;;;;;;5054427;28;20230;-80
2022/01/13 05:40:31;;;;;;;25.73;15.17;;;;;;;;;;5054896;28;20249;-79
2022/01/13 05:42:58;;;;;;;21.23;14.47;;;;;;;;;;5054373;28;20233;-80
2022/01/13 05:45:29;;;;;;;23.23;14.57;;;;;;;;;;5054664;28;20233;-79
2022/01/13 05:47:57;;;;;;;24.33;14.23;;;;;;;;;;5054365;28;20568;-79
2022/01/13 05:50:25;;;;;;;25.30;15.17;;;;;;;;;;5054456;28;20697;-80
2022/01/13 05:52:52;;;;;;;26.53;13.63;;;;;;;;;;5054102;28;20793;-79
2022/01/13 05:55:19;;;;;;;25.67;14.50;;;;;;;;;;5054287;28;20669;-79
2022/01/13 05:57:48;;;;;;;24.37;14.53;;;;;;;;;;5056810;28;20287;-80
2022/01/13 06:00:16;;;;;;;22.70;14.90;;;;;;;;;;5074776;28;20587;-80
2022/01/13 06:02:43;;;;;;;23.40;15.43;;;;;;;;;;5074061;28;20236;-80
2022/01/13 06:05:11;;;;;;;24.00;14.40;;;;;;;;;;5057396;28;20229;-81
2022/01/13 06:07:38;;;;;;;28.60;16.50;;;;;;;;;;5053933;28;20234;-81
2022/01/13 06:10:07;;;;;;;21.27;14.77;;;;;;;;;;5054720;28;20233;-82
2022/01/13 06:12:37;;;;;;;27.60;15.13;;;;;;;;;;5053943;28;20702;-83
2022/01/13 06:15:06;;;;;;;22.03;14.33;;;;;;;;;;5054335;28;20225;-82
2022/01/13 06:17:33;;;;;;;27.50;15.60;;;;;;;;;;5053993;28;20229;-83
2022/01/13 06:20:00;;;;;;;24.60;14.77;;;;;;;;;;5054360;28;20240;-82
2022/01/13 06:22:28;;;;;;;26.37;15.67;;;;;;;;;;5054156;28;20212;-83
2022/01/13 06:24:55;;;;;;;20.10;13.43;;;;;;;;;;5068360;28;20228;-84
2022/01/13 06:27:23;;;;;;;19.10;13.57;;;;;;;;;;5073879;28;20590;-82
2022/01/13 06:29:51;;;;;;;19.77;13.23;;;;;;;;;;5074076;28;20778;-82
2022/01/13 06:32:19;;;;;;;24.07;15.30;;;;;;;;;;5073871;28;20672;-82
2022/01/13 06:34:46;;;;;;;22.20;13.70;;;;;;;;;;5074260;28;20616;-82
2022/01/13 06:37:13;;;;;;;25.33;15.03;;;;;;;;;;5073879;28;20204;-83
2022/01/13 06:39:40;;;;;;;25.70;15.57;;;;;;;;;;5073915;28;20248;-82
2022/01/13 06:42:08;;;;;;;22.67;13.33;;;;;;;;;;5092491;22;20686;-80
2022/01/13 06:44:35;;;;;;;24.03;15.00;;;;;;;;;;5061373;28;20234;-81
2022/01/13 06:47:02;;;;;;;20.37;14.03;;;;;;;;;;5056525;28;20201;-81
2022/01/13 06:49:30;;;;;;;25.37;14.57;;;;;;;;;;5056371;28;20735;-80
2022/01/13 06:51:57;;;;;;;23.57;14.37;;;;;;;;;;5048771;28;20227;-81
2022/01/13 06:54:25;;;;;;;21.33;14.80;;;;;;;;;;5035444;28;20231;-81
2022/01/13 06:56:52;;;;;;;23.67;15.50;;;;;;;;;;5037224;28;20257;-81
2022/01/13 06:59:19;;;;;;;26.73;16.37;;;;;;;;;;5036368;28;20226;-80
2022/01/13 07:01:47;;;;;;;24.10;15.17;;;;;;;;;;5037546;28;20226;-81
2022/01/13 07:04:14;;;;;;;25.07;15.80;;;;;;;;;;5036217;28;20239;-80
2022/01/13 07:06:44;;;;;;;25.20;16.17;;;;;;;;;;5036415;28;20671;-80
2022/01/13 07:09:13;;;;;;;29.67;16.43;;;;;;;;;;5038606;28;20241;-80
2022/01/13 07:11:40;;;;;;;31.10;17.60;;;;;;;;;;5039489;28;20237;-80
2022/01/13 07:14:07;;;;;;;28.57;17.90;;;;;;;;;;5037238;28;20245;-81
2022/01/13 07:16:35;;;;;;;32.27;20.20;;;;;;;;;;5038604;28;20212;-80
2022/01/13 07:19:02;;;;;;;36.23;20.13;;;;;;;;;;5029941;28;20227;-80
2022/01/13 07:21:30;;;;;;;31.50;19.27;;;;;;;;;;5037286;28;20667;-81
2022/01/13 07:23:58;;;;;;;27.00;18.40;;;;;;;;;;5036660;28;20751;-81
2022/01/13 07:26:26;;;;;;;29.57;16.97;;;;;;;;;;5037139;28;20580;-81
2022/01/13 07:28:53;;;;;;;35.73;21.10;;;;;;;;;;5036291;28;20244;-81
2022/01/13 07:31:20;;;;;;;26.67;18.37;;;;;;;;;;5036726;28;20210;-81
2022/01/13 07:33:47;;;;;;;35.40;21.63;;;;;;;;;;5038551;28;20248;-81
2022/01/13 07:36:14;;;;;;;33.27;20.77;;;;;;;;;;5035684;28;20205;-81
2022/01/13 07:38:42;;;;;;;29.40;19.33;;;;;;;;;;5036462;28;20244;-81
2022/01/13 07:41:10;;;;;;;33.77;19.80;;;;;;;;;;5036452;28;20697;-81
2022/01/13 07:43:41;;;;;;;33.80;21.87;;;;;;;;;;5037163;28;20596;-81
2022/01/13 07:46:08;;;;;;;35.43;22.77;;;;;;;;;;5038308;28;20282;-81
2022/01/13 07:48:35;;;;;;;33.27;21.33;;;;;;;;;;5038568;28;20244;-80
2022/01/13 07:51:02;;;;;;;33.53;20.00;;;;;;;;;;5036917;28;20273;-81
2022/01/13 07:53:29;;;;;;;27.60;18.93;;;;;;;;;;5036334;28;20242;-81
2022/01/13 07:55:57;;;;;;;30.90;19.33;;;;;;;;;;5036509;28;20203;-81
2022/01/13 07:58:26;;;;;;;30.30;19.20;;;;;;;;;;5037282;28;20233;-81
2022/01/13 08:00:53;;;;;;;31.83;20.97;;;;;;;;;;5037912;28;20238;-81
2022/01/13 08:03:20;;;;;;;34.00;21.73;;;;;;;;;;5037509;28;20241;-82
2022/01/13 08:05:48;;;;;;;33.07;23.23;;;;;;;;;;5037024;28;20265;-82
2022/01/13 08:08:15;;;;;;;30.10;18.53;;;;;;;;;;5033407;28;20234;-82
2022/01/13 08:10:42;;;;;;;30.87;20.50;;;;;;;;;;5034353;28;20549;-82
2022/01/13 08:13:09;;;;;;;29.03;19.10;;;;;;;;;;5015581;28;20245;-81
2022/01/13 08:15:40;;;;;;;26.23;17.13;;;;;;;;;;5016167;28;20203;-81
2022/01/13 08:20:51;;;;;;;26.63;17.40;;;;;;;;;;5028044;28;20196;-82
2022/01/13 08:23:18;;;;;;;28.73;17.60;;;;;;;;;;5035673;28;20238;-81
2022/01/13 08:25:45;;;;;;;27.77;17.57;;;;;;;;;;5035750;28;20237;-80
2022/01/13 08:28:13;;;;;;;28.43;18.77;;;;;;;;;;5026737;28;20230;-81
2022/01/13 08:30:41;;;;;;;27.87;18.27;;;;;;;;;;5017303;28;20211;-81
2022/01/13 08:33:08;;;;;;;27.37;17.87;;;;;;;;;;5017579;28;20249;-82
2022/01/13 08:35:35;;;;;;;23.23;16.00;;;;;;;;;;5016025;28;20200;-81
2022/01/13 08:38:07;;;;;;;23.90;17.53;;;;;;;;;;5016648;28;20242;-81
2022/01/13 08:40:35;;;;;;;23.07;16.57;;;;;;;;;;5016673;28;20196;-82
2022/01/13 08:43:02;;;;;;;21.23;14.63;;;;;;;;;;5034432;28;20257;-82
2022/01/13 08:45:29;;;;;;;25.47;14.43;;;;;;;;;;5037026;28;20245;-84
2022/01/13 08:47:58;;;;;;;26.93;17.37;;;;;;;;;;5038353;28;20234;-82
2022/01/13 08:50:25;;;;;;;24.73;15.90;;;;;;;;;;5040793;28;20206;-82
2022/01/13 08:52:52;;;;;;;23.03;15.80;;;;;;;;;;5042835;28;20261;-82
2022/01/13 08:55:19;;;;;;;21.33;15.40;;;;;;;;;;5044370;28;20233;-82
2022/01/13 08:57:46;;;;;;;20.23;14.60;;;;;;;;;;5042566;28;20647;-82
2022/01/13 09:00:14;;;;;;;22.17;14.70;;;;;;;;;;5043888;28;20564;-82
2022/01/13 09:02:42;;;;;;;27.00;16.33;;;;;;;;;;5024415;28;20739;-82
2022/01/13 09:05:11;;;;;;;23.03;14.73;;;;;;;;;;5020635;28;20236;-82
2022/01/13 09:07:38;;;;;;;27.70;17.90;;;;;;;;;;5025091;28;20238;-81
2022/01/13 09:10:06;;;;;;;21.23;14.93;;;;;;;;;;5039578;28;20203;-81
2022/01/13 09:12:33;;;;;;;21.43;15.40;;;;;;;;;;5037167;28;20288;-82
2022/01/13 09:15:03;;;;;;;24.60;16.00;;;;;;;;;;5039743;28;20209;-82
2022/01/13 09:17:31;;;;;;;24.07;15.87;;;;;;;;;;5038383;28;20230;-82
2022/01/13 09:19:58;;;;;;;24.27;17.47;;;;;;;;;;5038684;28;20215;-82
2022/01/13 09:22:27;;;;;;;29.07;19.10;;;;;;;;;;5038132;28;20230;-82
2022/01/13 09:24:54;;;;;;;24.73;17.37;;;;;;;;;;5038928;28;20211;-82
2022/01/13 09:27:21;;;;;;;24.97;17.50;;;;;;;;;;5038357;28;20313;-82
2022/01/13 09:29:48;;;;;;;26.87;17.57;;;;;;;;;;5038499;28;20210;-82
2022/01/13 09:32:15;;;;;;;24.87;16.30;;;;;;;;;;5038495;28;20226;-82
2022/01/13 09:34:43;;;;;;;25.00;15.70;;;;;;;;;;5038819;28;20202;-82
2022/01/13 09:37:11;;;;;;;17.77;12.27;;;;;;;;;;5037717;28;20216;-82
2022/01/13 09:39:39;;;;;;;20.70;14.33;;;;;;;;;;5041151;28;20212;-82
2022/01/13 09:42:09;;;;;;;19.80;13.70;;;;;;;;;;5056393;28;20242;-82
2022/01/13 09:44:36;;;;;;;20.37;14.77;;;;;;;;;;5056826;28;20230;-82
2022/01/13 09:47:04;;;;;;;28.53;18.10;;;;;;;;;;5056370;28;20230;-82
2022/01/13 09:49:32;;;;;;;29.13;17.00;;;;;;;;;;5052131;28;20720;-82
2022/01/13 09:51:59;;;;;;;25.23;16.13;;;;;;;;;;5035985;28;20707;-82
2022/01/13 09:54:26;;;;;;;25.07;16.77;;;;;;;;;;5036109;28;20776;-82
2022/01/13 09:56:55;;;;;;;20.40;14.10;;;;;;;;;;5036210;28;20349;-81
2022/01/13 09:59:22;;;;;;;22.10;14.23;;;;;;;;;;5033287;28;20269;-82
2022/01/13 10:01:49;;;;;;;26.93;15.70;;;;;;;;;;5033815;28;20238;-82
2022/01/13 10:04:16;;;;;;;21.80;15.23;;;;;;;;;;5033481;28;20902;-82
2022/01/13 10:06:47;;;;;;;24.13;15.43;;;;;;;;;;5034435;28;20284;-82
2022/01/13 10:09:14;;;;;;;25.13;16.10;;;;;;;;;;5033463;28;20321;-82
2022/01/13 10:11:45;;;;;;;25.60;17.10;;;;;;;;;;5035050;28;20223;-83
2022/01/13 10:16:22;;;;;;;29.43;18.70;;;;;;;;;;5034353;28;20250;-83
2022/01/13 10:17:02;;;;;;;28.10;18.53;;;;;;;;;;5034734;28;20202;-82
2022/01/13 10:19:31;;;;;;;29.37;17.13;;;;;;;;;;5033945;28;20314;-83
2022/01/13 10:21:59;;;;;;;24.43;15.40;;;;;;;;;;5036059;28;20377;-83
2022/01/13 10:24:27;;;;;;;25.47;17.67;;;;;;;;;;5038413;28;20939;-83
2022/01/13 10:27:00;;;;;;;26.00;16.80;;;;;;;;;;5037475;28;20231;-83
2022/01/13 10:29:38;;;;;;;22.07;15.57;;;;;;;;;;5034454;28;20238;-83
2022/01/13 10:32:05;;;;;;;21.00;15.00;;;;;;;;;;5041070;28;20225;-83
2022/01/13 10:34:32;;;;;;;21.40;15.33;;;;;;;;;;5038881;28;20231;-82
2022/01/13 10:37:00;;;;;;;26.23;15.50;;;;;;;;;;5039761;28;20227;-83
2022/01/13 10:39:42;;;;;;;27.17;16.57;;;;;;;;;;5041397;28;20245;-84
2022/01/13 10:42:30;;;;;;;23.73;16.53;;;;;;;;;;5038903;28;20641;-83
2022/01/13 10:44:59;;;;;;;26.90;18.47;;;;;;;;;;5030070;28;20663;-83
2022/01/13 10:47:27;;;;;;;28.70;18.50;;;;;;;;;;5038060;28;20203;-83
2022/01/13 10:49:54;;;;;;;28.53;18.43;;;;;;;;;;5038061;28;20300;-83
2022/01/13 10:52:25;;;;;;;29.80;18.70;;;;;;;;;;5039830;28;20230;-83
2022/01/13 10:54:53;;;;;;;32.67;20.80;;;;;;;;;;5040890;28;20194;-83
2022/01/13 10:57:21;;;;;;;27.97;18.60;;;;;;;;;;5039675;28;20214;-83
2022/01/13 10:59:48;;;;;;;29.67;19.53;;;;;;;;;;5038542;28;20202;-83
2022/01/13 11:02:18;;;;;;;32.10;21.30;;;;;;;;;;5039846;28;20234;-83
2022/01/13 11:04:45;;;;;;;30.03;18.93;;;;;;;;;;5036892;28;20230;-83
2022/01/13 11:07:16;;;;;;;28.80;20.47;;;;;;;;;;5035882;28;20321;-83
2022/01/13 11:09:44;;;;;;;31.13;20.10;;;;;;;;;;5039334;28;20569;-83
2022/01/13 11:12:14;;;;;;;30.60;22.17;;;;;;;;;;5039839;28;20265;-82
2022/01/13 11:14:42;;;;;;;26.30;14.90;;;;;;;;;;5041925;28;20211;-82
2022/01/13 11:17:10;;;;;;;31.97;21.03;;;;;;;;;;5038216;28;20199;-86
2022/01/13 11:19:41;;;;;;;33.37;21.33;;;;;;;;;;5038033;28;20663;-82
2022/01/13 11:22:09;;;;;;;28.17;20.83;;;;;;;;;;5038795;28;20613;-82
2022/01/13 11:24:36;;;;;;;31.10;20.63;;;;;;;;;;5039035;28;20594;-82
2022/01/13 11:27:04;;;;;;;30.23;20.73;;;;;;;;;;5039662;28;20231;-82
2022/01/13 11:29:31;;;;;;;28.23;19.70;;;;;;;;;;5039222;28;20239;-82
2022/01/13 11:31:58;;;;;;;28.73;20.40;;;;;;;;;;5037403;28;21031;-82
2022/01/13 11:34:25;;;;;;;29.77;20.90;;;;;;;;;;5049561;28;20226;-82
2022/01/13 11:36:54;;;;;;;28.20;19.43;;;;;;;;;;5037475;28;20206;-83
2022/01/13 11:39:36;;;;;;;27.73;18.80;;;;;;;;;;5035094;28;20231;-83
2022/01/13 11:42:05;;;;;;;29.60;19.70;;;;;;;;;;5034098;28;20262;-85
2022/01/13 11:44:32;;;;;;;32.37;21.13;;;;;;;;;;5034271;28;20230;-83
2022/01/13 11:46:59;;;;;;;29.73;20.17;;;;;;;;;;5033844;28;20230;-83
2022/01/13 11:49:38;;;;;;;35.57;21.60;;;;;;;;;;5032939;28;20230;-83
2022/01/13 11:52:16;;;;;;;32.57;20.60;;;;;;;;;;5031440;28;20763;-82
2022/01/13 11:54:44;;;;;;;33.00;19.80;;;;;;;;;;5033837;28;20709;-83
2022/01/13 11:57:12;;;;;;;30.37;20.77;;;;;;;;;;5033821;28;20197;-85
2022/01/13 11:59:39;;;;;;;31.23;20.67;;;;;;;;;;5034354;28;20214;-83
2022/01/13 12:02:25;;;;;;;32.00;21.43;;;;;;;;;;5034877;28;20235;-83
2022/01/13 12:05:01;;;;;;;32.13;20.60;;;;;;;;;;5032397;28;20234;-82
2022/01/13 12:07:39;;;;;;;34.30;21.17;;;;;;;;;;5032356;28;20238;-82
2022/01/13 12:10:07;;;;;;;35.47;23.03;;;;;;;;;;5031622;28;20210;-82
2022/01/13 12:12:35;;;;;;;31.63;20.77;;;;;;;;;;5030850;28;20239;-82
2022/01/13 12:15:15;;;;;;;32.03;21.33;;;;;;;;;;5017033;28;20219;-82
2022/01/13 12:17:46;;;;;;;33.67;22.10;;;;;;;;;;5032406;28;20230;-82
2022/01/13 12:20:23;;;;;;;34.97;22.23;;;;;;;;;;5033038;28;20722;-82
2022/01/13 12:23:02;;;;;;;32.03;21.67;;;;;;;;;;5031614;28;20712;-83
2022/01/13 12:25:33;;;;;;;31.43;21.43;;;;;;;;;;5032909;28;20270;-82
2022/01/13 12:28:11;;;;;;;31.70;21.23;;;;;;;;;;5032770;28;20269;-83
2022/01/13 12:30:39;;;;;;;34.23;22.43;;;;;;;;;;5033986;28;20200;-83
2022/01/13 12:33:08;;;;;;;33.00;21.83;;;;;;;;;;5028511;28;20230;-82
2022/01/13 12:35:43;;;;;;;34.07;21.37;;;;;;;;;;5026969;28;20202;-82
2022/01/13 12:38:12;;;;;;;35.57;24.87;;;;;;;;;;5034090;28;20226;-82
2022/01/13 12:40:43;;;;;;;40.97;22.77;;;;;;;;;;5026649;28;20211;-82
2022/01/13 12:43:22;;;;;;;35.03;22.47;;;;;;;;;;5026089;28;20238;-82
2022/01/13 12:45:49;;;;;;;32.60;22.13;;;;;;;;;;5031534;28;20213;-83
2022/01/13 12:48:16;;;;;;;39.50;22.73;;;;;;;;;;5013009;28;20237;-82
2022/01/13 12:50:45;;;;;;;32.57;22.07;;;;;;;;;;5013601;28;20692;-82
2022/01/13 12:53:15;;;;;;;32.20;21.90;;;;;;;;;;5015538;28;20641;-82
2022/01/13 12:55:44;;;;;;;28.20;18.93;;;;;;;;;;5031733;28;20693;-82
2022/01/13 12:58:12;;;;;;;26.97;20.03;;;;;;;;;;5029410;28;20231;-82
2022/01/13 13:00:40;;;;;;;29.70;19.87;;;;;;;;;;5060932;23;20229;-84
2022/01/13 13:03:08;;;;;;;32.50;21.30;;;;;;;;;;5051991;28;20230;-83
2022/01/13 13:05:36;;;;;;;29.10;19.40;;;;;;;;;;5052654;28;20222;-83
2022/01/13 13:08:07;;;;;;;30.23;20.13;;;;;;;;;;5054681;28;20288;-83
2022/01/13 13:10:36;;;;;;;28.20;19.67;;;;;;;;;;5054447;28;20232;-84
2022/01/13 13:13:03;;;;;;;29.47;20.43;;;;;;;;;;5054637;28;20720;-84
2022/01/13 13:15:40;;;;;;;27.97;19.77;;;;;;;;;;5055336;28;20216;-84
2022/01/13 13:18:07;;;;;;;26.80;18.70;;;;;;;;;;5052323;28;20736;-84
2022/01/13 13:20:35;;;;;;;30.30;19.37;;;;;;;;;;5044332;28;20224;-86
2022/01/13 13:23:04;;;;;;;29.17;20.50;;;;;;;;;;5056805;28;20237;-85
2022/01/13 13:25:33;;;;;;;31.20;19.20;;;;;;;;;;5057615;28;20202;-84
2022/01/13 13:28:15;;;;;;;26.40;17.23;;;;;;;;;;5052951;28;20233;-85
2022/01/13 13:30:46;;;;;;;29.27;18.80;;;;;;;;;;5053119;28;20234;-85
2022/01/13 13:33:14;;;;;;;28.23;18.57;;;;;;;;;;5057141;28;20234;-86
2022/01/13 13:35:41;;;;;;;24.33;17.87;;;;;;;;;;5058529;28;20213;-84
2022/01/13 13:38:11;;;;;;;28.07;17.90;;;;;;;;;;5059318;28;20256;-85
2022/01/13 13:40:43;;;;;;;27.10;17.83;;;;;;;;;;5059159;28;20263;-84
2022/01/13 13:43:10;;;;;;;26.13;18.43;;;;;;;;;;5061431;28;20252;-84
2022/01/13 13:45:37;;;;;;;28.77;20.00;;;;;;;;;;5062328;28;20206;-84
2022/01/13 13:48:05;;;;;;;27.10;18.60;;;;;;;;;;5060516;28;20304;-84
2022/01/13 13:50:33;;;;;;;27.87;19.83;;;;;;;;;;5056639;28;20230;-85
2022/01/13 13:53:07;;;;;;;31.00;20.17;;;;;;;;;;5055801;28;20241;-84
2022/01/13 13:55:35;;;;;;;27.87;19.93;;;;;;;;;;5054389;28;20208;-84
2022/01/13 13:58:02;;;;;;;31.33;19.20;;;;;;;;;;5055259;28;20735;-84
2022/01/13 14:00:29;;;;;;;25.03;18.43;;;;;;;;;;5046260;28;20321;-84
2022/01/13 14:02:58;;;;;;;26.53;18.07;;;;;;;;;;5037242;28;20241;-85
2022/01/13 14:05:37;;;;;;;27.37;17.93;;;;;;;;;;5045114;28;20210;-85
2022/01/13 14:08:09;;;;;;;28.00;18.90;;;;;;;;;;5060397;28;20252;-84
2022/01/13 14:10:36;;;;;;;25.77;17.27;;;;;;;;;;5053463;28;20578;-84
2022/01/13 14:13:04;;;;;;;24.67;17.23;;;;;;;;;;5044253;28;20236;-84
2022/01/13 14:15:33;;;;;;;28.30;17.17;;;;;;;;;;5058686;28;20213;-85
2022/01/13 14:18:11;;;;;;;25.07;17.10;;;;;;;;;;5053730;28;20716;-84
2022/01/13 14:20:40;;;;;;;24.87;17.00;;;;;;;;;;5054860;28;20232;-84
2022/01/13 14:23:08;;;;;;;25.67;17.10;;;;;;;;;;5054109;28;20232;-84
2022/01/13 14:25:37;;;;;;;23.53;16.67;;;;;;;;;;5054857;28;20201;-84
2022/01/13 14:28:05;;;;;;;26.77;18.17;;;;;;;;;;5052889;28;20693;-85
2022/01/13 14:30:33;;;;;;;23.53;17.07;;;;;;;;;;5055297;28;20229;-86
2022/01/13 14:33:13;;;;;;;26.43;17.23;;;;;;;;;;5048426;28;20229;-84
2022/01/13 14:35:42;;;;;;;25.40;18.17;;;;;;;;;;5034120;28;20573;-84
2022/01/13 14:38:11;;;;;;;24.60;16.57;;;;;;;;;;5033358;28;20608;-84